UCT Elwood — V7HW9 — position and weather

sailwx.info

Track history (hours):
 
Tides and Currents Weather Stations Pressure Air Temp Water Temp Dewpoint Dewpoint Depression Visibility Wind Speed Wind Dir Waves Ship Positions

UCT Elwood

Last reported at 2017-Jan-15 03:26 UTC. Time now 2017-Jan-17 07:04 UTC.
Position S 32°39' W 060°44'.

Type: Ship (hazmat cat B). MMSI: 538002324.

Date/timePositionNaut miles runAvg speedWind from/ knotsBaromVisibWave heightAir tempDewpointWater temp
2017-Jan-15 03:26S 32°39' W 060°44'  
2017-Jan-12 04:32S 33°25' W 060°04'  
2017-Jan-08 20:32S 35°14' W 055°35'84 2.6
2017-Jan-07 12:31S 34°46' W 053°59'1314.1
2017-Jan-07 11:33S 34°41' W 053°43'58813.0
2017-Jan-05 14:12S 26°59' W 046°40'914.3
2017-Jan-05 13:33S 26°51' W 046°37'1713.8
2017-Jan-05 12:18S 26°34' W 046°30'1013.6
2017-Jan-05 11:33S 26°24' W 046°29'1613.9
2017-Jan-05 10:22S 26°08' W 046°28'3913.6
2017-Jan-05 07:32S 25°29' W 046°27'1313.6
2017-Jan-05 06:33S 25°16' W 046°26'1413.6
2017-Jan-05 05:31S 25°02' W 046°25'1313.9
2017-Jan-05 04:33S 24°48' W 046°24'1413.8
2017-Jan-05 03:33S 24°35' W 046°25'  
Track history (hours):
 
Tides and Currents Weather Stations Pressure Air Temp Water Temp Dewpoint Dewpoint Depression Visibility Wind Speed Wind Dir Waves Ship Positions

UCT Elwood

Last reported at 2017-Jan-15 03:26 UTC. Time now 2017-Jan-17 07:04 UTC.
Position S 32°39' W 060°44'.

Type: Ship (hazmat cat B). MMSI: 538002324.

Date/timePositionNaut miles runAvg speedWind from/ knotsBaromVisibWave heightAir tempDewpointWater temp
2017-Jan-15 03:26S 32°39' W 060°44'  
2017-Jan-12 04:32S 33°25' W 060°04'  
2017-Jan-08 20:32S 35°14' W 055°35'84 2.6
2017-Jan-07 12:31S 34°46' W 053°59'1314.1
2017-Jan-07 11:33S 34°41' W 053°43'58813.0
2017-Jan-05 14:12S 26°59' W 046°40'914.3
2017-Jan-05 13:33S 26°51' W 046°37'1713.8
2017-Jan-05 12:18S 26°34' W 046°30'1013.6
2017-Jan-05 11:33S 26°24' W 046°29'1613.9
2017-Jan-05 10:22S 26°08' W 046°28'3913.6
2017-Jan-05 07:32S 25°29' W 046°27'1313.6
2017-Jan-05 06:33S 25°16' W 046°26'1413.6
2017-Jan-05 05:31S 25°02' W 046°25'1313.9
2017-Jan-05 04:33S 24°48' W 046°24'1413.8
2017-Jan-05 03:33S 24°35' W 046°25'  

Dump ship's entire track history